createdAt,value
2022-10-01T00:00:11.136Z,12
2022-10-01T00:02:42.454Z,11
2022-10-01T00:05:14.087Z,8
2022-10-01T00:07:46.354Z,8
2022-10-01T00:10:17.430Z,8
2022-10-01T00:12:48.581Z,8
2022-10-01T00:15:20.205Z,8
2022-10-01T00:17:51.297Z,8
2022-10-01T00:20:24.100Z,8
2022-10-01T00:22:55.194Z,8
2022-10-01T00:25:26.485Z,5
2022-10-01T00:27:58.076Z,8
2022-10-01T00:30:28.188Z,8
2022-10-01T00:32:58.980Z,8
2022-10-01T00:35:30.297Z,8
2022-10-01T00:38:02.247Z,8
2022-10-01T00:40:32.411Z,8
2022-10-01T00:43:03.446Z,8
2022-10-01T00:45:34.709Z,8
2022-10-01T00:48:06.019Z,8
2022-10-01T00:50:37.740Z,4
2022-10-01T00:53:07.247Z,8
2022-10-01T00:55:38.390Z,12
2022-10-01T00:58:09.630Z,9
2022-10-01T01:00:40.809Z,4
2022-10-01T01:03:12.094Z,4
2022-10-01T01:05:43.255Z,8
2022-10-01T01:08:14.569Z,8
2022-10-01T01:10:44.434Z,8
2022-10-01T01:13:14.928Z,6
2022-10-01T01:15:46.530Z,8
2022-10-01T01:18:17.970Z,8
2022-10-01T01:20:49.229Z,8
2022-10-01T01:23:22.762Z,8
2022-10-01T01:25:54.995Z,8
2022-10-01T01:28:26.290Z,8
2022-10-01T01:30:57.919Z,4
2022-10-01T01:33:29.499Z,8
2022-10-01T01:36:00.546Z,6
2022-10-01T01:38:30.946Z,8
2022-10-01T01:41:02.722Z,4
2022-10-01T01:43:34.591Z,8
2022-10-01T01:46:06.386Z,4
2022-10-01T01:48:37.830Z,4
2022-10-01T01:51:09.298Z,4
2022-10-01T01:53:40.683Z,4
2022-10-01T01:56:11.400Z,4
2022-10-01T01:58:42.960Z,4
2022-10-01T02:01:13.077Z,7
2022-10-01T02:03:44.149Z,4
2022-10-01T02:06:15.372Z,4
2022-10-01T02:08:47.113Z,4
2022-10-01T02:11:18.026Z,4
2022-10-01T02:13:49.727Z,4
2022-10-01T02:16:21.555Z,8
2022-10-01T02:18:52.780Z,4
2022-10-01T02:21:24.318Z,4
2022-10-01T02:23:55.865Z,4
2022-10-01T02:26:27.210Z,4
2022-10-01T02:28:58.928Z,4
2022-10-01T02:31:29.759Z,4
2022-10-01T02:34:01.529Z,7
2022-10-01T02:36:33.572Z,4
2022-10-01T02:39:04.743Z,4
2022-10-01T02:41:37.042Z,4
2022-10-01T02:44:08.680Z,4
2022-10-01T02:46:40.146Z,4
2022-10-01T02:49:12.027Z,4
2022-10-01T02:51:43.646Z,4
2022-10-01T02:54:15.335Z,4
2022-10-01T02:56:48.919Z,4
2022-10-01T02:59:18.912Z,4
2022-10-01T03:01:51.908Z,4
2022-10-01T03:04:23.476Z,4
2022-10-01T03:06:54.641Z,4
2022-10-01T03:09:26.385Z,4
2022-10-01T03:11:58.000Z,4
2022-10-01T03:14:29.877Z,4
2022-10-01T03:17:02.079Z,4
2022-10-01T03:19:33.673Z,4
2022-10-01T03:22:04.532Z,4
2022-10-01T03:24:35.987Z,5
2022-10-01T03:27:06.068Z,4
2022-10-01T03:29:37.654Z,4
2022-10-01T03:32:09.836Z,4
2022-10-01T03:34:41.081Z,4
2022-10-01T03:37:13.328Z,1
2022-10-01T03:39:45.405Z,4
2022-10-01T03:42:16.309Z,4
2022-10-01T03:44:48.678Z,4
2022-10-01T03:47:20.349Z,4
2022-10-01T03:49:51.495Z,4
2022-10-01T03:52:23.298Z,4
2022-10-01T03:54:55.696Z,2
2022-10-01T03:57:26.627Z,4
2022-10-01T03:59:58.041Z,0
2022-10-01T04:02:29.918Z,4
2022-10-01T04:05:01.721Z,4
2022-10-01T04:07:33.684Z,4
2022-10-01T04:10:05.983Z,4
2022-10-01T04:12:38.430Z,4
2022-10-01T04:15:09.794Z,4
2022-10-01T04:17:45.213Z,4
2022-10-01T04:20:12.025Z,4
2022-10-01T04:22:43.720Z,4
2022-10-01T04:25:15.404Z,4
2022-10-01T04:27:46.879Z,4
2022-10-01T04:30:18.550Z,4
2022-10-01T04:32:51.049Z,4
2022-10-01T04:35:22.269Z,4
2022-10-01T04:37:53.934Z,12
2022-10-01T04:40:26.344Z,8
2022-10-01T04:42:58.022Z,12
2022-10-01T04:45:29.275Z,11
2022-10-01T04:48:01.267Z,12
2022-10-01T04:50:33.246Z,12
2022-10-01T04:53:05.941Z,12
2022-10-01T04:55:38.464Z,8
2022-10-01T04:58:09.138Z,8
2022-10-01T05:00:46.667Z,8
2022-10-01T05:03:17.689Z,9
2022-10-01T05:05:49.102Z,8
2022-10-01T05:08:21.048Z,8
2022-10-01T05:10:52.702Z,8
2022-10-01T05:13:24.207Z,4
2022-10-01T05:15:55.714Z,8
2022-10-01T05:18:27.313Z,10
2022-10-01T05:20:59.055Z,8
2022-10-01T05:23:30.288Z,8
2022-10-01T05:26:01.925Z,8
2022-10-01T05:28:33.851Z,12
2022-10-01T05:31:06.053Z,16
2022-10-01T05:33:37.350Z,13
2022-10-01T05:36:08.986Z,12
2022-10-01T05:38:40.544Z,16
2022-10-01T05:41:12.088Z,12
2022-10-01T05:43:43.529Z,16
2022-10-01T05:46:14.902Z,13
2022-10-01T05:48:46.421Z,16
2022-10-01T05:51:17.991Z,12
2022-10-01T05:53:50.398Z,12
2022-10-01T05:56:20.955Z,12
2022-10-01T05:58:52.240Z,9
2022-10-01T06:01:23.721Z,8
2022-10-01T06:03:54.874Z,8
2022-10-01T06:06:26.712Z,12
2022-10-01T06:08:57.127Z,8
2022-10-01T06:11:28.374Z,5
2022-10-01T06:14:00.040Z,8
2022-10-01T06:16:31.477Z,12
2022-10-01T06:19:03.133Z,8
2022-10-01T06:21:34.639Z,8
2022-10-01T06:24:06.249Z,8
2022-10-01T06:26:37.588Z,8
2022-10-01T06:29:08.665Z,8
2022-10-01T06:31:40.255Z,8
2022-10-01T06:34:11.155Z,8
2022-10-01T06:36:43.423Z,8
2022-10-01T06:39:16.419Z,9
2022-10-01T06:41:47.519Z,12
2022-10-01T06:44:18.863Z,8
2022-10-01T06:46:49.925Z,9
2022-10-01T06:49:21.618Z,9
2022-10-01T06:51:54.152Z,13
2022-10-01T06:54:25.324Z,12
2022-10-01T06:56:56.909Z,11
2022-10-01T06:59:28.738Z,12
2022-10-01T07:01:59.693Z,16
2022-10-01T07:04:30.364Z,17
2022-10-01T07:07:01.786Z,20
2022-10-01T07:09:32.655Z,28
2022-10-01T07:12:03.926Z,26
2022-10-01T07:14:35.013Z,24
2022-10-01T07:17:06.414Z,24
2022-10-01T07:19:37.573Z,16
2022-10-01T07:22:09.477Z,28
2022-10-01T07:24:40.599Z,20
2022-10-01T07:27:11.764Z,20
2022-10-01T07:29:43.346Z,20
2022-10-01T07:32:14.912Z,20
2022-10-01T07:34:46.160Z,24
2022-10-01T07:37:16.977Z,16
2022-10-01T07:39:47.891Z,16
2022-10-01T07:42:20.321Z,16
2022-10-01T07:44:51.978Z,15
2022-10-01T07:47:23.701Z,14
2022-10-01T07:49:55.471Z,16
2022-10-01T07:52:28.288Z,15
2022-10-01T07:54:59.796Z,16
2022-10-01T07:57:31.549Z,21
2022-10-01T08:00:03.761Z,16
2022-10-01T08:02:36.350Z,13
2022-10-01T08:05:08.153Z,16
2022-10-01T08:07:39.069Z,13
2022-10-01T08:10:10.759Z,16
2022-10-01T08:12:42.468Z,12
2022-10-01T08:15:14.307Z,16
2022-10-01T08:17:49.086Z,15
2022-10-01T08:20:20.413Z,12
2022-10-01T08:22:51.984Z,14
2022-10-01T08:25:23.726Z,12
2022-10-01T08:27:55.071Z,15
2022-10-01T08:30:27.413Z,16
2022-10-01T08:32:58.778Z,13
2022-10-01T08:35:29.735Z,12
2022-10-01T08:38:01.485Z,14
2022-10-01T08:40:33.022Z,12
2022-10-01T08:43:04.569Z,14
2022-10-01T08:45:35.425Z,16
2022-10-01T08:48:08.013Z,16
2022-10-01T08:50:39.470Z,16
2022-10-01T08:53:10.917Z,16
2022-10-01T08:55:42.329Z,16
2022-10-01T08:58:13.766Z,12
2022-10-01T09:00:45.850Z,12
2022-10-01T09:03:17.807Z,16
2022-10-01T09:05:49.361Z,12
2022-10-01T09:08:21.513Z,12
2022-10-01T09:10:53.222Z,8
2022-10-01T09:13:25.897Z,8
2022-10-01T09:15:57.378Z,15
2022-10-01T09:18:29.027Z,12
2022-10-01T09:20:59.884Z,12
2022-10-01T09:23:31.233Z,12
2022-10-01T09:26:02.079Z,12
2022-10-01T09:28:33.842Z,13
2022-10-01T09:31:06.387Z,12
2022-10-01T09:33:37.925Z,13
2022-10-01T09:36:09.685Z,12
2022-10-01T09:38:41.368Z,10
2022-10-01T09:41:13.226Z,12
2022-10-01T09:43:45.000Z,16
2022-10-01T09:46:15.209Z,16
2022-10-01T09:48:50.119Z,16
2022-10-01T09:51:21.833Z,12
2022-10-01T09:53:52.982Z,12
2022-10-01T09:56:24.844Z,16
2022-10-01T09:58:55.883Z,17
2022-10-01T10:01:27.085Z,23
2022-10-01T10:04:00.269Z,16
2022-10-01T10:06:33.808Z,20
2022-10-01T10:09:04.914Z,19
2022-10-01T10:11:36.890Z,16
2022-10-01T10:14:08.089Z,16
2022-10-01T10:16:42.485Z,17
2022-10-01T10:19:14.216Z,21
2022-10-01T10:21:49.108Z,20
2022-10-01T10:24:20.440Z,16
2022-10-01T10:26:51.733Z,17
2022-10-01T10:29:24.239Z,20
2022-10-01T10:31:54.977Z,15
2022-10-01T10:34:26.071Z,20
2022-10-01T10:36:57.128Z,16
2022-10-01T10:39:31.733Z,24
2022-10-01T10:42:02.991Z,16
2022-10-01T10:44:34.083Z,27
2022-10-01T10:47:05.221Z,21
2022-10-01T10:49:36.599Z,20
2022-10-01T10:54:39.970Z,32
2022-10-01T10:57:13.081Z,28
2022-10-01T10:59:47.932Z,35
2022-10-01T11:02:19.386Z,28
2022-10-01T11:04:50.081Z,28
2022-10-01T11:07:21.575Z,21
2022-10-01T11:09:52.855Z,16
2022-10-01T11:12:24.121Z,20
2022-10-01T11:14:55.042Z,30
2022-10-01T11:17:26.290Z,16
2022-10-01T11:19:57.955Z,23
2022-10-01T11:22:29.356Z,12
2022-10-01T11:25:00.299Z,16
2022-10-01T11:27:31.116Z,20
2022-10-01T11:30:02.416Z,25
2022-10-01T11:32:34.240Z,12
2022-10-01T11:35:06.201Z,32
2022-10-01T11:37:37.355Z,24
2022-10-01T11:40:07.097Z,30
2022-10-01T11:42:39.085Z,23
2022-10-01T11:45:09.576Z,16
2022-10-01T11:47:40.607Z,12
2022-10-01T11:50:11.369Z,17
2022-10-01T11:52:42.855Z,12
2022-10-01T11:55:14.660Z,33
2022-10-01T11:57:46.065Z,22
2022-10-01T12:00:17.073Z,39
2022-10-01T12:02:48.327Z,16
2022-10-01T12:05:19.545Z,18
2022-10-01T12:07:50.379Z,24
2022-10-01T12:10:21.738Z,36
2022-10-01T12:12:52.763Z,24
2022-10-01T12:15:24.521Z,20
2022-10-01T12:17:55.439Z,16
2022-10-01T12:20:26.990Z,18
2022-10-01T12:22:58.850Z,20
2022-10-01T12:25:30.430Z,24
2022-10-01T12:28:01.848Z,32
2022-10-01T12:30:33.607Z,24
2022-10-01T12:33:06.397Z,32
2022-10-01T12:35:37.955Z,28
2022-10-01T12:38:09.548Z,24
2022-10-01T12:40:41.127Z,32
2022-10-01T12:43:13.250Z,25
2022-10-01T12:45:44.847Z,20
2022-10-01T12:48:19.053Z,16
2022-10-01T12:50:51.063Z,20
2022-10-01T12:53:22.959Z,29
2022-10-01T12:55:55.149Z,36
2022-10-01T12:58:26.018Z,20
2022-10-01T13:00:57.417Z,12
2022-10-01T13:03:28.780Z,16
2022-10-01T13:06:00.415Z,12
2022-10-01T13:08:31.728Z,13
2022-10-01T13:11:03.102Z,11
2022-10-01T13:13:34.827Z,12
2022-10-01T13:16:06.674Z,11
2022-10-01T13:18:37.788Z,12
2022-10-01T13:21:10.101Z,8
2022-10-01T13:23:41.439Z,9
2022-10-01T13:26:13.562Z,12
2022-10-01T13:28:44.686Z,12
2022-10-01T13:31:16.143Z,11
2022-10-01T13:33:46.989Z,8
2022-10-01T13:36:18.322Z,9
2022-10-01T13:38:49.728Z,8
2022-10-01T13:41:22.024Z,12
2022-10-01T13:43:55.245Z,12
2022-10-01T13:46:26.702Z,8
2022-10-01T13:48:58.300Z,4
2022-10-01T13:51:29.831Z,7
2022-10-01T13:54:01.173Z,4
2022-10-01T13:56:32.776Z,8
2022-10-01T13:59:03.752Z,8
2022-10-01T14:01:35.335Z,8
2022-10-01T14:04:07.717Z,8
2022-10-01T14:06:38.740Z,8
2022-10-01T14:09:09.943Z,8
2022-10-01T14:11:41.072Z,11
2022-10-01T14:14:13.194Z,8
2022-10-01T14:16:44.649Z,8
2022-10-01T14:19:14.281Z,7
2022-10-01T14:21:45.729Z,8
2022-10-01T14:24:17.300Z,7
2022-10-01T14:26:48.360Z,8
2022-10-01T14:29:18.334Z,9
2022-10-01T14:31:51.308Z,10
2022-10-01T14:34:22.512Z,8
2022-10-01T14:36:53.634Z,7
2022-10-01T14:39:24.789Z,4
2022-10-01T14:41:56.088Z,4
2022-10-01T14:44:27.184Z,4
2022-10-01T14:46:58.471Z,4
2022-10-01T14:49:29.025Z,0
2022-10-01T14:52:00.718Z,0
2022-10-01T14:54:31.445Z,0
2022-10-01T14:57:05.080Z,0
2022-10-01T14:59:37.332Z,0
2022-10-01T15:02:10.115Z,0
2022-10-01T15:04:43.539Z,12
2022-10-01T15:07:15.208Z,4
2022-10-01T15:09:47.084Z,0
2022-10-01T15:12:17.171Z,0
2022-10-01T15:14:49.204Z,0
2022-10-01T15:17:21.306Z,4
2022-10-01T15:19:52.504Z,0
2022-10-01T15:22:23.541Z,4
2022-10-01T15:24:55.219Z,4
2022-10-01T15:27:27.084Z,0
2022-10-01T15:29:58.651Z,0
2022-10-01T15:32:31.155Z,35
2022-10-01T15:35:02.805Z,1
2022-10-01T15:37:32.908Z,4
2022-10-01T15:40:06.348Z,0
2022-10-01T15:42:38.719Z,5
2022-10-01T15:45:10.081Z,0
2022-10-01T15:47:44.406Z,3
2022-10-01T15:50:16.242Z,3
2022-10-01T15:52:47.600Z,0
2022-10-01T15:55:19.172Z,0
2022-10-01T15:57:51.144Z,4
2022-10-01T16:00:23.055Z,4
2022-10-01T16:02:54.923Z,25
2022-10-01T16:05:26.353Z,4
2022-10-01T16:07:58.119Z,0
2022-10-01T16:10:30.820Z,4
2022-10-01T16:13:03.394Z,5
2022-10-01T16:15:33.435Z,0
2022-10-01T16:18:06.049Z,4
2022-10-01T16:20:37.886Z,0
2022-10-01T16:23:09.275Z,3
2022-10-01T16:25:41.861Z,4
2022-10-01T16:28:15.062Z,8
2022-10-01T16:30:46.913Z,7
2022-10-01T16:33:16.719Z,4
2022-10-01T16:35:48.301Z,0
2022-10-01T16:38:19.847Z,7
2022-10-01T16:40:51.513Z,0
2022-10-01T16:43:23.813Z,8
2022-10-01T16:45:55.476Z,20
2022-10-01T16:48:29.820Z,20
2022-10-01T16:51:01.493Z,12
2022-10-01T16:53:33.065Z,12
2022-10-01T16:56:04.648Z,12
2022-10-01T16:58:34.526Z,12
2022-10-01T17:01:06.428Z,16
2022-10-01T17:03:38.107Z,12
2022-10-01T17:06:09.894Z,11
2022-10-01T17:08:41.665Z,8
2022-10-01T17:11:13.640Z,8
2022-10-01T17:13:45.372Z,9
2022-10-01T17:16:16.570Z,8
2022-10-01T17:18:48.125Z,8
2022-10-01T17:21:18.421Z,9
2022-10-01T17:23:53.552Z,12
2022-10-01T17:26:23.240Z,16
2022-10-01T17:28:55.722Z,29
2022-10-01T17:31:27.105Z,24
2022-10-01T17:33:59.477Z,8
2022-10-01T17:36:30.769Z,12
2022-10-01T17:39:00.761Z,12
2022-10-01T17:41:31.818Z,12
2022-10-01T17:44:03.360Z,8
2022-10-01T17:46:35.599Z,8
2022-10-01T17:49:06.952Z,8
2022-10-01T17:51:38.211Z,12
2022-10-01T17:54:09.893Z,9
2022-10-01T17:56:40.844Z,12
2022-10-01T17:59:12.318Z,12
2022-10-01T18:01:45.227Z,14
2022-10-01T18:04:16.386Z,11
2022-10-01T18:06:47.531Z,8
2022-10-01T18:09:19.025Z,12
2022-10-01T18:11:48.869Z,17
2022-10-01T18:14:21.519Z,8
2022-10-01T18:16:53.308Z,12
2022-10-01T18:21:55.386Z,8
2022-10-01T18:24:26.987Z,12
2022-10-01T18:26:58.639Z,8
2022-10-01T18:29:31.096Z,8
2022-10-01T18:32:06.968Z,12
2022-10-01T18:34:37.734Z,8
2022-10-01T18:37:09.386Z,9
2022-10-01T18:39:42.100Z,8
2022-10-01T18:42:14.864Z,8
2022-10-01T18:44:46.924Z,7
2022-10-01T18:47:19.174Z,4
2022-10-01T18:49:51.667Z,4
2022-10-01T18:52:24.250Z,8
2022-10-01T18:54:56.185Z,8
2022-10-01T18:57:28.433Z,6
2022-10-01T19:00:00.115Z,7
2022-10-01T19:02:31.817Z,4
2022-10-01T19:05:03.344Z,8
2022-10-01T19:07:34.858Z,8
2022-10-01T19:10:07.755Z,7
2022-10-01T19:12:39.396Z,8
2022-10-01T19:15:11.117Z,8
2022-10-01T19:17:42.399Z,8
2022-10-01T19:20:18.266Z,6
2022-10-01T19:22:50.362Z,8
2022-10-01T19:25:22.774Z,6
2022-10-01T19:27:54.374Z,8
2022-10-01T19:30:26.055Z,8
2022-10-01T19:32:59.155Z,4
2022-10-01T19:35:37.063Z,8
2022-10-01T19:38:10.227Z,6
2022-10-01T19:40:41.868Z,8
2022-10-01T19:43:13.555Z,12
2022-10-01T19:45:50.525Z,12
2022-10-01T19:48:23.279Z,12
2022-10-01T19:50:54.985Z,9
2022-10-01T19:53:27.065Z,7
2022-10-01T19:55:58.953Z,4
2022-10-01T19:58:30.913Z,5
2022-10-01T20:01:02.985Z,5
2022-10-01T20:03:37.313Z,8
2022-10-01T20:06:09.588Z,4
2022-10-01T20:08:41.800Z,8
2022-10-01T20:11:14.602Z,8
2022-10-01T20:13:46.308Z,9
2022-10-01T20:16:18.156Z,8
2022-10-01T20:18:49.794Z,8
2022-10-01T20:21:28.596Z,8
2022-10-01T20:23:59.761Z,4
2022-10-01T20:26:31.754Z,4
2022-10-01T20:29:03.044Z,4
2022-10-01T20:31:34.877Z,4
2022-10-01T20:34:09.025Z,4
2022-10-01T20:36:41.562Z,4
2022-10-01T20:39:12.799Z,4
2022-10-01T20:41:45.700Z,4
2022-10-01T20:44:17.947Z,8
2022-10-01T20:46:49.858Z,8
2022-10-01T20:49:22.427Z,7
2022-10-01T20:51:53.719Z,6
2022-10-01T20:54:25.783Z,4
2022-10-01T20:56:57.355Z,8
2022-10-01T20:59:29.072Z,7
2022-10-01T21:02:00.043Z,8
2022-10-01T21:04:31.343Z,9
2022-10-01T21:07:03.343Z,8
2022-10-01T21:09:36.511Z,6
2022-10-01T21:12:08.090Z,8
2022-10-01T21:14:39.935Z,4
2022-10-01T21:17:12.103Z,4
2022-10-01T21:19:42.415Z,4
2022-10-01T21:22:14.873Z,4
2022-10-01T21:24:45.844Z,7
2022-10-01T21:27:17.798Z,4
2022-10-01T21:29:49.548Z,4
2022-10-01T21:32:21.554Z,4
2022-10-01T21:34:53.358Z,4
2022-10-01T21:37:25.112Z,4
2022-10-01T21:39:56.386Z,4
2022-10-01T21:42:28.555Z,7
2022-10-01T21:45:00.245Z,4
2022-10-01T21:47:31.818Z,4
2022-10-01T21:50:03.630Z,4
2022-10-01T21:52:34.875Z,4
2022-10-01T21:55:06.608Z,4
2022-10-01T21:57:38.620Z,4
2022-10-01T22:00:10.450Z,5
2022-10-01T22:02:42.318Z,4
2022-10-01T22:05:14.405Z,4
2022-10-01T22:07:46.074Z,4
2022-10-01T22:10:17.208Z,0
2022-10-01T22:12:48.058Z,7
2022-10-01T22:15:18.980Z,4
2022-10-01T22:17:50.148Z,4
2022-10-01T22:20:21.305Z,4
2022-10-01T22:22:52.428Z,8
2022-10-01T22:25:23.422Z,11
2022-10-01T22:27:55.180Z,8
2022-10-01T22:30:25.604Z,12
2022-10-01T22:32:56.762Z,11
2022-10-01T22:35:28.149Z,8
2022-10-01T22:37:59.193Z,7
2022-10-01T22:40:30.280Z,8
2022-10-01T22:43:01.203Z,7
2022-10-01T22:45:32.117Z,8
2022-10-01T22:48:03.294Z,8
2022-10-01T22:50:34.559Z,4
2022-10-01T22:53:06.597Z,4
2022-10-01T22:55:38.044Z,11
2022-10-01T22:58:11.133Z,5
2022-10-01T23:00:43.207Z,4
2022-10-01T23:03:14.677Z,8
2022-10-01T23:05:45.892Z,4
2022-10-01T23:08:17.362Z,8
2022-10-01T23:10:48.746Z,8
2022-10-01T23:13:19.981Z,4
2022-10-01T23:15:51.323Z,4
2022-10-01T23:18:22.732Z,4
2022-10-01T23:20:53.802Z,8
2022-10-01T23:23:27.090Z,4
2022-10-01T23:25:58.336Z,4
2022-10-01T23:28:28.424Z,8
2022-10-01T23:30:59.888Z,4
2022-10-01T23:33:31.205Z,8
2022-10-01T23:36:05.303Z,5
2022-10-01T23:38:37.025Z,8
2022-10-01T23:41:08.229Z,8
2022-10-01T23:43:39.454Z,8
2022-10-01T23:46:09.210Z,8
2022-10-01T23:48:40.135Z,8
2022-10-01T23:51:11.760Z,8
2022-10-01T23:53:43.457Z,8
2022-10-01T23:56:14.103Z,12
2022-10-01T23:58:45.148Z,9
